sensor_id;sensor_type;location;lat;lon;timestamp;P1;durP1;ratioP1;P2;durP2;ratioP2
21513;SDS011;10918;48.102;11.636;2022-09-03T00:07:46;2.45;;;1.60;;
21513;SDS011;10918;48.102;11.636;2022-09-03T00:10:21;3.03;;;1.83;;
21513;SDS011;10918;48.102;11.636;2022-09-03T00:12:50;2.03;;;1.50;;
21513;SDS011;10918;48.102;11.636;2022-09-03T00:15:18;3.05;;;1.50;;
21513;SDS011;10918;48.102;11.636;2022-09-03T00:22:53;2.83;;;1.70;;
21513;SDS011;10918;48.102;11.636;2022-09-03T00:25:22;1.73;;;1.60;;
21513;SDS011;10918;48.102;11.636;2022-09-03T00:27:50;4.03;;;1.90;;
21513;SDS011;10918;48.102;11.636;2022-09-03T00:30:19;1.90;;;1.52;;
21513;SDS011;10918;48.102;11.636;2022-09-03T00:32:53;3.75;;;1.60;;
21513;SDS011;10918;48.102;11.636;2022-09-03T00:37:51;2.38;;;1.48;;
21513;SDS011;10918;48.102;11.636;2022-09-03T00:41:22;4.15;;;1.63;;
21513;SDS011;10918;48.102;11.636;2022-09-03T00:45:52;2.38;;;1.63;;
21513;SDS011;10918;48.102;11.636;2022-09-03T00:48:22;2.33;;;2.03;;
21513;SDS011;10918;48.102;11.636;2022-09-03T00:53:40;3.00;;;1.60;;
21513;SDS011;10918;48.102;11.636;2022-09-03T00:56:31;1.90;;;1.70;;
21513;SDS011;10918;48.102;11.636;2022-09-03T00:59:03;2.80;;;1.75;;
21513;SDS011;10918;48.102;11.636;2022-09-03T01:04:15;2.97;;;1.83;;
21513;SDS011;10918;48.102;11.636;2022-09-03T01:11:50;2.72;;;1.60;;
21513;SDS011;10918;48.102;11.636;2022-09-03T01:14:30;1.90;;;1.70;;
21513;SDS011;10918;48.102;11.636;2022-09-03T01:17:06;3.08;;;1.88;;
21513;SDS011;10918;48.102;11.636;2022-09-03T01:35:29;1.80;;;1.55;;
21513;SDS011;10918;48.102;11.636;2022-09-03T01:40:37;2.78;;;1.80;;
21513;SDS011;10918;48.102;11.636;2022-09-03T01:45:52;4.18;;;2.15;;
21513;SDS011;10918;48.102;11.636;2022-09-03T01:48:28;2.70;;;1.80;;
21513;SDS011;10918;48.102;11.636;2022-09-03T01:51:04;3.70;;;1.83;;
21513;SDS011;10918;48.102;11.636;2022-09-03T01:53:45;2.05;;;1.85;;
21513;SDS011;10918;48.102;11.636;2022-09-03T01:56:30;1.80;;;1.70;;
21513;SDS011;10918;48.102;11.636;2022-09-03T01:59:14;2.53;;;2.08;;
21513;SDS011;10918;48.102;11.636;2022-09-03T02:01:48;3.53;;;1.80;;
21513;SDS011;10918;48.102;11.636;2022-09-03T02:04:16;2.08;;;1.73;;
21513;SDS011;10918;48.102;11.636;2022-09-03T02:06:44;2.28;;;1.52;;
21513;SDS011;10918;48.102;11.636;2022-09-03T02:09:13;2.25;;;1.85;;
21513;SDS011;10918;48.102;11.636;2022-09-03T02:11:39;2.40;;;1.60;;
21513;SDS011;10918;48.102;11.636;2022-09-03T02:14:05;2.00;;;1.80;;
21513;SDS011;10918;48.102;11.636;2022-09-03T02:16:32;3.22;;;1.95;;
21513;SDS011;10918;48.102;11.636;2022-09-03T02:19:00;4.38;;;2.33;;
21513;SDS011;10918;48.102;11.636;2022-09-03T02:21:29;6.60;;;2.25;;
21513;SDS011;10918;48.102;11.636;2022-09-03T02:23:57;3.35;;;1.85;;
21513;SDS011;10918;48.102;11.636;2022-09-03T02:26:24;2.13;;;1.92;;
21513;SDS011;10918;48.102;11.636;2022-09-03T02:28:51;1.98;;;1.75;;
21513;SDS011;10918;48.102;11.636;2022-09-03T02:31:18;2.47;;;1.70;;
21513;SDS011;10918;48.102;11.636;2022-09-03T02:33:45;2.33;;;2.00;;
21513;SDS011;10918;48.102;11.636;2022-09-03T02:36:14;2.80;;;2.00;;
21513;SDS011;10918;48.102;11.636;2022-09-03T02:38:42;2.08;;;1.80;;
21513;SDS011;10918;48.102;11.636;2022-09-03T02:41:08;1.95;;;1.75;;
21513;SDS011;10918;48.102;11.636;2022-09-03T02:43:48;2.25;;;2.05;;
21513;SDS011;10918;48.102;11.636;2022-09-03T02:46:17;2.80;;;2.25;;
21513;SDS011;10918;48.102;11.636;2022-09-03T02:48:45;3.70;;;1.95;;
21513;SDS011;10918;48.102;11.636;2022-09-03T02:51:12;3.67;;;1.92;;
21513;SDS011;10918;48.102;11.636;2022-09-03T02:53:38;1.73;;;1.63;;
21513;SDS011;10918;48.102;11.636;2022-09-03T02:56:04;2.92;;;1.60;;
21513;SDS011;10918;48.102;11.636;2022-09-03T02:58:30;4.13;;;2.28;;
21513;SDS011;10918;48.102;11.636;2022-09-03T03:00:56;2.58;;;2.22;;
21513;SDS011;10918;48.102;11.636;2022-09-03T03:03:22;2.70;;;1.88;;
21513;SDS011;10918;48.102;11.636;2022-09-03T03:05:50;2.40;;;2.03;;
21513;SDS011;10918;48.102;11.636;2022-09-03T03:08:17;4.20;;;2.10;;
21513;SDS011;10918;48.102;11.636;2022-09-03T03:10:45;3.58;;;2.10;;
21513;SDS011;10918;48.102;11.636;2022-09-03T03:13:12;2.08;;;1.83;;
21513;SDS011;10918;48.102;11.636;2022-09-03T03:15:38;2.35;;;2.15;;
21513;SDS011;10918;48.102;11.636;2022-09-03T03:18:04;2.17;;;1.63;;
21513;SDS011;10918;48.102;11.636;2022-09-03T03:20:31;2.00;;;1.80;;
21513;SDS011;10918;48.102;11.636;2022-09-03T03:23:00;2.17;;;1.80;;
21513;SDS011;10918;48.102;11.636;2022-09-03T03:25:26;3.35;;;2.20;;
21513;SDS011;10918;48.102;11.636;2022-09-03T03:27:55;2.50;;;2.30;;
21513;SDS011;10918;48.102;11.636;2022-09-03T03:30:21;2.75;;;1.80;;
21513;SDS011;10918;48.102;11.636;2022-09-03T03:32:48;2.28;;;1.90;;
21513;SDS011;10918;48.102;11.636;2022-09-03T03:35:14;2.30;;;2.10;;
21513;SDS011;10918;48.102;11.636;2022-09-03T03:37:40;2.50;;;2.00;;
21513;SDS011;10918;48.102;11.636;2022-09-03T03:40:06;2.70;;;1.88;;
21513;SDS011;10918;48.102;11.636;2022-09-03T03:42:32;3.03;;;2.03;;
21513;SDS011;10918;48.102;11.636;2022-09-03T03:44:59;2.10;;;1.92;;
21513;SDS011;10918;48.102;11.636;2022-09-03T03:47:26;3.53;;;2.25;;
21513;SDS011;10918;48.102;11.636;2022-09-03T03:49:52;4.50;;;2.40;;
21513;SDS011;10918;48.102;11.636;2022-09-03T03:52:18;3.33;;;2.20;;
21513;SDS011;10918;48.102;11.636;2022-09-03T03:54:44;4.00;;;2.53;;
21513;SDS011;10918;48.102;11.636;2022-09-03T03:57:13;3.75;;;2.60;;
21513;SDS011;10918;48.102;11.636;2022-09-03T03:59:39;3.78;;;2.40;;
21513;SDS011;10918;48.102;11.636;2022-09-03T04:02:05;2.35;;;2.15;;
21513;SDS011;10918;48.102;11.636;2022-09-03T04:04:31;2.85;;;1.95;;
21513;SDS011;10918;48.102;11.636;2022-09-03T04:06:57;2.95;;;2.22;;
21513;SDS011;10918;48.102;11.636;2022-09-03T04:09:23;2.63;;;2.10;;
21513;SDS011;10918;48.102;11.636;2022-09-03T04:11:49;3.42;;;2.30;;
21513;SDS011;10918;48.102;11.636;2022-09-03T04:14:15;3.55;;;2.45;;
21513;SDS011;10918;48.102;11.636;2022-09-03T04:16:42;3.60;;;2.28;;
21513;SDS011;10918;48.102;11.636;2022-09-03T04:19:10;2.63;;;2.20;;
21513;SDS011;10918;48.102;11.636;2022-09-03T04:21:36;2.50;;;2.30;;
21513;SDS011;10918;48.102;11.636;2022-09-03T04:24:02;3.50;;;2.60;;
21513;SDS011;10918;48.102;11.636;2022-09-03T04:26:29;2.63;;;2.40;;
21513;SDS011;10918;48.102;11.636;2022-09-03T04:28:56;2.75;;;2.17;;
21513;SDS011;10918;48.102;11.636;2022-09-03T04:31:23;2.17;;;1.98;;
21513;SDS011;10918;48.102;11.636;2022-09-03T04:33:49;3.00;;;2.40;;
21513;SDS011;10918;48.102;11.636;2022-09-03T04:36:18;3.17;;;2.50;;
21513;SDS011;10918;48.102;11.636;2022-09-03T04:38:45;3.70;;;2.13;;
21513;SDS011;10918;48.102;11.636;2022-09-03T04:41:15;3.33;;;2.30;;
21513;SDS011;10918;48.102;11.636;2022-09-03T04:43:42;3.13;;;2.38;;
21513;SDS011;10918;48.102;11.636;2022-09-03T04:46:08;5.40;;;2.40;;
21513;SDS011;10918;48.102;11.636;2022-09-03T04:48:35;2.90;;;2.30;;
21513;SDS011;10918;48.102;11.636;2022-09-03T04:51:05;3.10;;;2.30;;
21513;SDS011;10918;48.102;11.636;2022-09-03T04:53:32;2.60;;;2.40;;
21513;SDS011;10918;48.102;11.636;2022-09-03T04:55:59;4.90;;;2.00;;
21513;SDS011;10918;48.102;11.636;2022-09-03T04:58:25;4.43;;;2.33;;
21513;SDS011;10918;48.102;11.636;2022-09-03T05:00:51;3.38;;;2.30;;
21513;SDS011;10918;48.102;11.636;2022-09-03T05:03:17;2.95;;;2.65;;
21513;SDS011;10918;48.102;11.636;2022-09-03T05:05:50;2.95;;;2.50;;
21513;SDS011;10918;48.102;11.636;2022-09-03T05:08:16;5.28;;;3.10;;
21513;SDS011;10918;48.102;11.636;2022-09-03T05:10:42;2.83;;;2.28;;
21513;SDS011;10918;48.102;11.636;2022-09-03T05:13:08;2.58;;;2.38;;
21513;SDS011;10918;48.102;11.636;2022-09-03T05:15:34;3.33;;;2.28;;
21513;SDS011;10918;48.102;11.636;2022-09-03T05:18:00;3.30;;;2.20;;
21513;SDS011;10918;48.102;11.636;2022-09-03T05:20:27;2.72;;;2.35;;
21513;SDS011;10918;48.102;11.636;2022-09-03T05:22:54;2.97;;;2.20;;
21513;SDS011;10918;48.102;11.636;2022-09-03T05:25:20;2.45;;;2.22;;
21513;SDS011;10918;48.102;11.636;2022-09-03T05:27:47;2.63;;;2.28;;
21513;SDS011;10918;48.102;11.636;2022-09-03T05:30:13;2.08;;;1.85;;
21513;SDS011;10918;48.102;11.636;2022-09-03T05:32:39;3.45;;;2.20;;
21513;SDS011;10918;48.102;11.636;2022-09-03T05:35:06;5.25;;;2.55;;
21513;SDS011;10918;48.102;11.636;2022-09-03T05:37:32;4.75;;;2.22;;
21513;SDS011;10918;48.102;11.636;2022-09-03T05:39:58;3.63;;;2.67;;
21513;SDS011;10918;48.102;11.636;2022-09-03T05:42:24;3.15;;;2.42;;
21513;SDS011;10918;48.102;11.636;2022-09-03T05:44:52;3.58;;;2.33;;
21513;SDS011;10918;48.102;11.636;2022-09-03T05:47:18;4.05;;;2.45;;
21513;SDS011;10918;48.102;11.636;2022-09-03T05:49:44;4.82;;;2.60;;
21513;SDS011;10918;48.102;11.636;2022-09-03T05:52:10;3.15;;;2.40;;
21513;SDS011;10918;48.102;11.636;2022-09-03T05:54:36;3.88;;;2.58;;
21513;SDS011;10918;48.102;11.636;2022-09-03T05:57:03;3.90;;;2.30;;
21513;SDS011;10918;48.102;11.636;2022-09-03T05:59:29;3.33;;;2.75;;
21513;SDS011;10918;48.102;11.636;2022-09-03T06:01:55;3.22;;;2.22;;
21513;SDS011;10918;48.102;11.636;2022-09-03T06:04:21;4.97;;;2.42;;
21513;SDS011;10918;48.102;11.636;2022-09-03T06:06:47;3.92;;;2.60;;
21513;SDS011;10918;48.102;11.636;2022-09-03T06:09:15;2.50;;;2.30;;
21513;SDS011;10918;48.102;11.636;2022-09-03T06:11:42;2.70;;;2.40;;
21513;SDS011;10918;48.102;11.636;2022-09-03T06:14:09;3.50;;;2.67;;
21513;SDS011;10918;48.102;11.636;2022-09-03T06:16:39;3.60;;;2.35;;
21513;SDS011;10918;48.102;11.636;2022-09-03T06:19:06;3.75;;;2.75;;
21513;SDS011;10918;48.102;11.636;2022-09-03T06:21:34;4.38;;;2.55;;
21513;SDS011;10918;48.102;11.636;2022-09-03T06:24:01;2.85;;;2.50;;
21513;SDS011;10918;48.102;11.636;2022-09-03T06:26:27;5.20;;;2.40;;
21513;SDS011;10918;48.102;11.636;2022-09-03T06:28:54;3.35;;;2.63;;
21513;SDS011;10918;48.102;11.636;2022-09-03T06:31:21;2.47;;;2.28;;
21513;SDS011;10918;48.102;11.636;2022-09-03T06:33:47;3.00;;;2.50;;
21513;SDS011;10918;48.102;11.636;2022-09-03T06:36:14;2.72;;;2.20;;
21513;SDS011;10918;48.102;11.636;2022-09-03T06:38:40;3.03;;;2.67;;
21513;SDS011;10918;48.102;11.636;2022-09-03T06:41:08;3.00;;;2.45;;
21513;SDS011;10918;48.102;11.636;2022-09-03T06:43:38;3.30;;;2.38;;
21513;SDS011;10918;48.102;11.636;2022-09-03T06:46:07;5.03;;;2.55;;
21513;SDS011;10918;48.102;11.636;2022-09-03T06:48:33;7.15;;;2.42;;
21513;SDS011;10918;48.102;11.636;2022-09-03T06:51:00;3.30;;;2.50;;
21513;SDS011;10918;48.102;11.636;2022-09-03T06:53:31;4.45;;;2.88;;
21513;SDS011;10918;48.102;11.636;2022-09-03T06:55:58;3.00;;;2.40;;
21513;SDS011;10918;48.102;11.636;2022-09-03T06:58:29;2.75;;;2.45;;
21513;SDS011;10918;48.102;11.636;2022-09-03T07:01:05;4.15;;;2.33;;
21513;SDS011;10918;48.102;11.636;2022-09-03T07:03:32;4.72;;;3.00;;
21513;SDS011;10918;48.102;11.636;2022-09-03T07:05:59;5.22;;;2.85;;
21513;SDS011;10918;48.102;11.636;2022-09-03T07:08:25;3.33;;;2.60;;
21513;SDS011;10918;48.102;11.636;2022-09-03T07:10:51;3.15;;;2.47;;
21513;SDS011;10918;48.102;11.636;2022-09-03T07:13:17;2.75;;;2.50;;
21513;SDS011;10918;48.102;11.636;2022-09-03T07:15:44;3.30;;;2.25;;
21513;SDS011;10918;48.102;11.636;2022-09-03T07:18:12;2.70;;;2.47;;
21513;SDS011;10918;48.102;11.636;2022-09-03T07:20:38;3.28;;;2.60;;
21513;SDS011;10918;48.102;11.636;2022-09-03T07:23:04;7.15;;;2.72;;
21513;SDS011;10918;48.102;11.636;2022-09-03T07:25:30;3.75;;;2.30;;
21513;SDS011;10918;48.102;11.636;2022-09-03T07:27:56;3.63;;;2.88;;
21513;SDS011;10918;48.102;11.636;2022-09-03T07:30:22;4.57;;;3.30;;
21513;SDS011;10918;48.102;11.636;2022-09-03T07:32:50;4.55;;;2.80;;
21513;SDS011;10918;48.102;11.636;2022-09-03T07:35:18;4.00;;;2.40;;
21513;SDS011;10918;48.102;11.636;2022-09-03T07:37:44;2.90;;;2.40;;
21513;SDS011;10918;48.102;11.636;2022-09-03T07:40:10;2.95;;;2.55;;
21513;SDS011;10918;48.102;11.636;2022-09-03T07:42:36;2.97;;;2.47;;
21513;SDS011;10918;48.102;11.636;2022-09-03T07:45:07;4.72;;;2.50;;
21513;SDS011;10918;48.102;11.636;2022-09-03T07:47:37;2.88;;;2.28;;
21513;SDS011;10918;48.102;11.636;2022-09-03T07:50:10;5.05;;;3.42;;
21513;SDS011;10918;48.102;11.636;2022-09-03T07:52:36;3.97;;;2.75;;
21513;SDS011;10918;48.102;11.636;2022-09-03T07:55:02;3.20;;;2.90;;
21513;SDS011;10918;48.102;11.636;2022-09-03T07:57:28;3.47;;;2.55;;
21513;SDS011;10918;48.102;11.636;2022-09-03T07:59:54;3.20;;;2.30;;
21513;SDS011;10918;48.102;11.636;2022-09-03T08:02:20;2.95;;;2.50;;
21513;SDS011;10918;48.102;11.636;2022-09-03T08:04:46;3.60;;;2.72;;
21513;SDS011;10918;48.102;11.636;2022-09-03T08:07:12;2.92;;;2.55;;
21513;SDS011;10918;48.102;11.636;2022-09-03T08:09:38;2.55;;;2.22;;
21513;SDS011;10918;48.102;11.636;2022-09-03T08:12:04;3.05;;;2.47;;
21513;SDS011;10918;48.102;11.636;2022-09-03T08:14:30;3.17;;;2.55;;
21513;SDS011;10918;48.102;11.636;2022-09-03T08:16:56;4.22;;;3.80;;
21513;SDS011;10918;48.102;11.636;2022-09-03T08:19:24;5.30;;;4.32;;
21513;SDS011;10918;48.102;11.636;2022-09-03T08:21:50;3.42;;;3.08;;
21513;SDS011;10918;48.102;11.636;2022-09-03T08:24:16;2.92;;;2.72;;
21513;SDS011;10918;48.102;11.636;2022-09-03T08:26:45;3.03;;;2.63;;
21513;SDS011;10918;48.102;11.636;2022-09-03T08:29:11;3.58;;;3.08;;
21513;SDS011;10918;48.102;11.636;2022-09-03T08:31:37;2.78;;;2.45;;
21513;SDS011;10918;48.102;11.636;2022-09-03T08:34:05;4.25;;;2.58;;
21513;SDS011;10918;48.102;11.636;2022-09-03T08:36:32;4.38;;;2.83;;
21513;SDS011;10918;48.102;11.636;2022-09-03T08:38:59;4.97;;;2.90;;
21513;SDS011;10918;48.102;11.636;2022-09-03T08:49:17;4.00;;;3.20;;
21513;SDS011;10918;48.102;11.636;2022-09-03T08:51:44;4.22;;;3.03;;
21513;SDS011;10918;48.102;11.636;2022-09-03T08:54:13;3.65;;;2.97;;
21513;SDS011;10918;48.102;11.636;2022-09-03T08:56:39;3.85;;;2.95;;
21513;SDS011;10918;48.102;11.636;2022-09-03T08:59:06;3.10;;;2.80;;
21513;SDS011;10918;48.102;11.636;2022-09-03T09:01:48;3.28;;;2.95;;
21513;SDS011;10918;48.102;11.636;2022-09-03T09:04:28;3.20;;;2.90;;
21513;SDS011;10918;48.102;11.636;2022-09-03T09:07:14;4.20;;;3.08;;
21513;SDS011;10918;48.102;11.636;2022-09-03T09:09:55;2.90;;;2.50;;
21513;SDS011;10918;48.102;11.636;2022-09-03T09:15:13;3.08;;;2.78;;
21513;SDS011;10918;48.102;11.636;2022-09-03T09:22:39;2.58;;;2.38;;
21513;SDS011;10918;48.102;11.636;2022-09-03T09:25:08;4.30;;;2.38;;
21513;SDS011;10918;48.102;11.636;2022-09-03T09:27:39;2.35;;;2.15;;
21513;SDS011;10918;48.102;11.636;2022-09-03T09:30:06;2.22;;;2.00;;
21513;SDS011;10918;48.102;11.636;2022-09-03T09:32:32;2.97;;;2.10;;
21513;SDS011;10918;48.102;11.636;2022-09-03T09:34:58;2.05;;;1.95;;
21513;SDS011;10918;48.102;11.636;2022-09-03T09:37:24;2.50;;;2.20;;
21513;SDS011;10918;48.102;11.636;2022-09-03T09:39:58;2.55;;;2.00;;
21513;SDS011;10918;48.102;11.636;2022-09-03T09:42:24;2.90;;;2.03;;
21513;SDS011;10918;48.102;11.636;2022-09-03T09:44:51;2.40;;;1.95;;
21513;SDS011;10918;48.102;11.636;2022-09-03T09:47:24;2.20;;;2.00;;
21513;SDS011;10918;48.102;11.636;2022-09-03T09:49:55;2.63;;;2.03;;
21513;SDS011;10918;48.102;11.636;2022-09-03T09:52:22;2.75;;;1.95;;
21513;SDS011;10918;48.102;11.636;2022-09-03T09:54:50;1.88;;;1.73;;
21513;SDS011;10918;48.102;11.636;2022-09-03T09:57:20;2.38;;;1.60;;
21513;SDS011;10918;48.102;11.636;2022-09-03T09:59:47;2.72;;;1.70;;
21513;SDS011;10918;48.102;11.636;2022-09-03T10:02:25;1.80;;;1.60;;
21513;SDS011;10918;48.102;11.636;2022-09-03T10:04:52;1.83;;;1.67;;
21513;SDS011;10918;48.102;11.636;2022-09-03T10:07:27;1.65;;;1.55;;
21513;SDS011;10918;48.102;11.636;2022-09-03T10:10:06;1.77;;;1.50;;
21513;SDS011;10918;48.102;11.636;2022-09-03T10:12:43;1.17;;;1.17;;
21513;SDS011;10918;48.102;11.636;2022-09-03T10:17:56;7.57;;;6.05;;
21513;SDS011;10918;48.102;11.636;2022-09-03T10:23:19;1.55;;;1.45;;
21513;SDS011;10918;48.102;11.636;2022-09-03T10:26:03;1.58;;;1.23;;
21513;SDS011;10918;48.102;11.636;2022-09-03T10:28:31;2.25;;;1.20;;
21513;SDS011;10918;48.102;11.636;2022-09-03T10:31:25;1.83;;;1.70;;
21513;SDS011;10918;48.102;11.636;2022-09-03T10:39:20;1.27;;;1.17;;
21513;SDS011;10918;48.102;11.636;2022-09-03T10:41:51;1.50;;;1.40;;
21513;SDS011;10918;48.102;11.636;2022-09-03T10:50:18;1.60;;;1.50;;
21513;SDS011;10918;48.102;11.636;2022-09-03T10:55:18;1.58;;;1.48;;
21513;SDS011;10918;48.102;11.636;2022-09-03T11:00:52;1.35;;;1.25;;
21513;SDS011;10918;48.102;11.636;2022-09-03T11:03:24;1.40;;;1.30;;
21513;SDS011;10918;48.102;11.636;2022-09-03T11:05:59;1.40;;;1.30;;
21513;SDS011;10918;48.102;11.636;2022-09-03T11:08:31;1.13;;;1.02;;
21513;SDS011;10918;48.102;11.636;2022-09-03T11:11:04;1.63;;;1.27;;
21513;SDS011;10918;48.102;11.636;2022-09-03T11:13:36;1.48;;;1.10;;
21513;SDS011;10918;48.102;11.636;2022-09-03T11:19:11;1.55;;;1.45;;
21513;SDS011;10918;48.102;11.636;2022-09-03T11:21:36;1.30;;;1.20;;
21513;SDS011;10918;48.102;11.636;2022-09-03T11:26:32;1.42;;;1.33;;
21513;SDS011;10918;48.102;11.636;2022-09-03T11:34:25;1.50;;;1.40;;
21513;SDS011;10918;48.102;11.636;2022-09-03T11:36:46;1.38;;;1.27;;
21513;SDS011;10918;48.102;11.636;2022-09-03T11:39:18;1.92;;;1.45;;
21513;SDS011;10918;48.102;11.636;2022-09-03T11:41:55;2.55;;;1.27;;
21513;SDS011;10918;48.102;11.636;2022-09-03T11:44:23;1.20;;;1.10;;
21513;SDS011;10918;48.102;11.636;2022-09-03T11:46:56;3.50;;;1.42;;
21513;SDS011;10918;48.102;11.636;2022-09-03T11:49:30;3.03;;;1.10;;
21513;SDS011;10918;48.102;11.636;2022-09-03T11:52:06;1.50;;;1.23;;
21513;SDS011;10918;48.102;11.636;2022-09-03T11:54:44;1.17;;;1.10;;
21513;SDS011;10918;48.102;11.636;2022-09-03T11:57:11;1.60;;;1.00;;
21513;SDS011;10918;48.102;11.636;2022-09-03T11:59:39;5.55;;;1.50;;
21513;SDS011;10918;48.102;11.636;2022-09-03T12:02:19;1.40;;;1.30;;
21513;SDS011;10918;48.102;11.636;2022-09-03T12:20:47;1.20;;;1.10;;
21513;SDS011;10918;48.102;11.636;2022-09-03T12:23:25;1.05;;;1.05;;
21513;SDS011;10918;48.102;11.636;2022-09-03T12:25:52;1.50;;;1.30;;
21513;SDS011;10918;48.102;11.636;2022-09-03T12:28:19;3.90;;;3.60;;
21513;SDS011;10918;48.102;11.636;2022-09-03T12:30:47;1.30;;;1.20;;
21513;SDS011;10918;48.102;11.636;2022-09-03T12:33:17;1.10;;;0.98;;
21513;SDS011;10918;48.102;11.636;2022-09-03T12:35:54;1.60;;;1.50;;
21513;SDS011;10918;48.102;11.636;2022-09-03T12:38:24;1.23;;;1.17;;
21513;SDS011;10918;48.102;11.636;2022-09-03T12:40:50;1.15;;;1.05;;
21513;SDS011;10918;48.102;11.636;2022-09-03T12:43:16;1.10;;;1.10;;
21513;SDS011;10918;48.102;11.636;2022-09-03T12:45:43;1.38;;;0.95;;
21513;SDS011;10918;48.102;11.636;2022-09-03T12:48:17;1.73;;;1.10;;
21513;SDS011;10918;48.102;11.636;2022-09-03T12:50:44;2.88;;;1.20;;
21513;SDS011;10918;48.102;11.636;2022-09-03T12:53:12;1.42;;;1.15;;
21513;SDS011;10918;48.102;11.636;2022-09-03T12:55:45;1.40;;;1.30;;
21513;SDS011;10918;48.102;11.636;2022-09-03T13:00:46;3.25;;;1.17;;
21513;SDS011;10918;48.102;11.636;2022-09-03T13:05:53;0.90;;;0.90;;
21513;SDS011;10918;48.102;11.636;2022-09-03T13:08:31;1.15;;;1.05;;
21513;SDS011;10918;48.102;11.636;2022-09-03T13:10:58;1.00;;;1.00;;
21513;SDS011;10918;48.102;11.636;2022-09-03T13:13:26;1.30;;;1.20;;
21513;SDS011;10918;48.102;11.636;2022-09-03T13:15:59;1.10;;;1.10;;
21513;SDS011;10918;48.102;11.636;2022-09-03T13:37:32;2.55;;;0.90;;
21513;SDS011;10918;48.102;11.636;2022-09-03T13:39:45;0.80;;;0.80;;
21513;SDS011;10918;48.102;11.636;2022-09-03T13:42:15;1.00;;;0.90;;
21513;SDS011;10918;48.102;11.636;2022-09-03T13:44:55;0.90;;;0.90;;
21513;SDS011;10918;48.102;11.636;2022-09-03T13:47:25;1.98;;;1.70;;
21513;SDS011;10918;48.102;11.636;2022-09-03T13:57:39;1.52;;;1.23;;
21513;SDS011;10918;48.102;11.636;2022-09-03T14:00:12;1.52;;;1.42;;
21513;SDS011;10918;48.102;11.636;2022-09-03T14:08:19;1.73;;;1.17;;
21513;SDS011;10918;48.102;11.636;2022-09-03T14:16:10;1.15;;;1.10;;
21513;SDS011;10918;48.102;11.636;2022-09-03T14:18:40;2.30;;;1.40;;
21513;SDS011;10918;48.102;11.636;2022-09-03T14:21:12;1.48;;;1.38;;
21513;SDS011;10918;48.102;11.636;2022-09-03T14:26:13;1.30;;;1.20;;
21513;SDS011;10918;48.102;11.636;2022-09-03T14:28:47;1.60;;;1.50;;
21513;SDS011;10918;48.102;11.636;2022-09-03T14:36:39;3.60;;;1.75;;
21513;SDS011;10918;48.102;11.636;2022-09-03T14:49:38;5.20;;;2.00;;
21513;SDS011;10918;48.102;11.636;2022-09-03T14:55:05;2.70;;;1.70;;
21513;SDS011;10918;48.102;11.636;2022-09-03T15:12:56;3.75;;;2.22;;
21513;SDS011;10918;48.102;11.636;2022-09-03T15:15:23;4.13;;;2.08;;
21513;SDS011;10918;48.102;11.636;2022-09-03T15:17:59;2.00;;;1.58;;
21513;SDS011;10918;48.102;11.636;2022-09-03T15:27:56;2.97;;;1.50;;
21513;SDS011;10918;48.102;11.636;2022-09-03T15:30:23;2.17;;;1.13;;
21513;SDS011;10918;48.102;11.636;2022-09-03T15:43:14;2.38;;;1.30;;
21513;SDS011;10918;48.102;11.636;2022-09-03T15:55:48;1.70;;;1.30;;
21513;SDS011;10918;48.102;11.636;2022-09-03T15:58:41;3.83;;;1.60;;
21513;SDS011;10918;48.102;11.636;2022-09-03T16:01:12;2.70;;;1.30;;
21513;SDS011;10918;48.102;11.636;2022-09-03T16:03:46;2.58;;;1.20;;
21513;SDS011;10918;48.102;11.636;2022-09-03T16:08:52;7.80;;;2.53;;
21513;SDS011;10918;48.102;11.636;2022-09-03T16:14:07;2.75;;;1.13;;
21513;SDS011;10918;48.102;11.636;2022-09-03T16:16:45;1.80;;;1.00;;
21513;SDS011;10918;48.102;11.636;2022-09-03T16:21:44;1.30;;;1.05;;
21513;SDS011;10918;48.102;11.636;2022-09-03T16:24:22;1.42;;;1.17;;
21513;SDS011;10918;48.102;11.636;2022-09-03T16:27:02;2.90;;;1.40;;
21513;SDS011;10918;48.102;11.636;2022-09-03T16:29:29;1.60;;;1.20;;
21513;SDS011;10918;48.102;11.636;2022-09-03T16:32:05;1.92;;;1.30;;
21513;SDS011;10918;48.102;11.636;2022-09-03T16:50:26;2.03;;;1.60;;
21513;SDS011;10918;48.102;11.636;2022-09-03T17:05:55;3.08;;;1.70;;
21513;SDS011;10918;48.102;11.636;2022-09-03T17:16:09;3.47;;;1.55;;
21513;SDS011;10918;48.102;11.636;2022-09-03T17:23:56;4.50;;;1.40;;
21513;SDS011;10918;48.102;11.636;2022-09-03T17:29:07;1.83;;;1.40;;
21513;SDS011;10918;48.102;11.636;2022-09-03T17:36:55;2.25;;;1.55;;
21513;SDS011;10918;48.102;11.636;2022-09-03T17:39:31;5.07;;;3.97;;
21513;SDS011;10918;48.102;11.636;2022-09-03T17:42:04;1.90;;;1.70;;
21513;SDS011;10918;48.102;11.636;2022-09-03T17:49:54;1.38;;;0.90;;
21513;SDS011;10918;48.102;11.636;2022-09-03T17:54:58;0.88;;;0.88;;
21513;SDS011;10918;48.102;11.636;2022-09-03T17:57:36;1.85;;;1.25;;
21513;SDS011;10918;48.102;11.636;2022-09-03T18:04:58;1.20;;;0.80;;
21513;SDS011;10918;48.102;11.636;2022-09-03T18:07:41;1.63;;;1.20;;
21513;SDS011;10918;48.102;11.636;2022-09-03T18:10:18;1.98;;;0.90;;
21513;SDS011;10918;48.102;11.636;2022-09-03T18:12:50;1.20;;;1.10;;
21513;SDS011;10918;48.102;11.636;2022-09-03T18:15:30;2.15;;;1.02;;
21513;SDS011;10918;48.102;11.636;2022-09-03T18:17:57;1.17;;;1.00;;
21513;SDS011;10918;48.102;11.636;2022-09-03T18:20:24;3.03;;;1.90;;
21513;SDS011;10918;48.102;11.636;2022-09-03T18:23:25;2.25;;;1.40;;
21513;SDS011;10918;48.102;11.636;2022-09-03T18:26:26;3.58;;;1.27;;
21513;SDS011;10918;48.102;11.636;2022-09-03T18:29:14;2.63;;;1.95;;
21513;SDS011;10918;48.102;11.636;2022-09-03T18:31:59;1.23;;;1.13;;
21513;SDS011;10918;48.102;11.636;2022-09-03T18:34:44;1.75;;;1.10;;
21513;SDS011;10918;48.102;11.636;2022-09-03T18:37:29;1.75;;;1.20;;
21513;SDS011;10918;48.102;11.636;2022-09-03T18:40:18;1.92;;;1.20;;
21513;SDS011;10918;48.102;11.636;2022-09-03T18:43:17;1.95;;;1.40;;
21513;SDS011;10918;48.102;11.636;2022-09-03T18:46:09;1.00;;;1.00;;
21513;SDS011;10918;48.102;11.636;2022-09-03T18:51:44;1.95;;;1.17;;
21513;SDS011;10918;48.102;11.636;2022-09-03T18:57:19;1.35;;;1.10;;
21513;SDS011;10918;48.102;11.636;2022-09-03T19:00:06;1.92;;;1.20;;
21513;SDS011;10918;48.102;11.636;2022-09-03T19:03:00;2.35;;;1.33;;
21513;SDS011;10918;48.102;11.636;2022-09-03T19:08:56;1.40;;;1.25;;
21513;SDS011;10918;48.102;11.636;2022-09-03T19:17:32;6.03;;;1.52;;
21513;SDS011;10918;48.102;11.636;2022-09-03T19:23:10;2.70;;;1.50;;
21513;SDS011;10918;48.102;11.636;2022-09-03T19:25:55;1.42;;;1.17;;
21513;SDS011;10918;48.102;11.636;2022-09-03T19:28:44;2.08;;;1.10;;
21513;SDS011;10918;48.102;11.636;2022-09-03T19:42:58;2.30;;;1.40;;
21513;SDS011;10918;48.102;11.636;2022-09-03T19:46:04;2.88;;;1.40;;
21513;SDS011;10918;48.102;11.636;2022-09-03T19:49:02;2.47;;;1.50;;
21513;SDS011;10918;48.102;11.636;2022-09-03T19:54:37;2.03;;;1.60;;
21513;SDS011;10918;48.102;11.636;2022-09-03T19:57:22;2.38;;;1.27;;
21513;SDS011;10918;48.102;11.636;2022-09-03T20:00:07;3.60;;;1.70;;
21513;SDS011;10918;48.102;11.636;2022-09-03T20:02:53;1.60;;;1.30;;
21513;SDS011;10918;48.102;11.636;2022-09-03T20:05:38;2.95;;;1.63;;
21513;SDS011;10918;48.102;11.636;2022-09-03T20:08:22;14.55;;;2.53;;
21513;SDS011;10918;48.102;11.636;2022-09-03T20:11:10;1.65;;;1.55;;
21513;SDS011;10918;48.102;11.636;2022-09-03T20:13:42;2.28;;;1.50;;
21513;SDS011;10918;48.102;11.636;2022-09-03T20:16:31;2.65;;;1.50;;
21513;SDS011;10918;48.102;11.636;2022-09-03T20:31:42;3.15;;;2.70;;